createdAt,value
2024-04-25T00:02:00.366Z,5.48
2024-04-25T00:04:33.708Z,5.69
2024-04-25T00:07:04.210Z,5.71
2024-04-25T00:09:34.716Z,5.28
2024-04-25T00:12:08.451Z,5.57
2024-04-25T00:14:39.032Z,5.47
2024-04-25T00:17:09.611Z,5.47
2024-04-25T00:19:40.255Z,4.83
2024-04-25T00:22:10.812Z,5.38
2024-04-25T00:24:41.204Z,5.64
2024-04-25T00:27:14.753Z,5.72
2024-04-25T00:29:45.144Z,5.32
2024-04-25T00:32:15.729Z,5.67
2024-04-25T00:34:46.170Z,5.68
2024-04-25T00:37:16.782Z,5.54
2024-04-25T00:39:47.307Z,5.45
2024-04-25T00:42:24.387Z,5.27
2024-04-25T00:44:56.429Z,5.73
2024-04-25T00:47:27.889Z,5.69
2024-04-25T00:49:59.372Z,5.46
2024-04-25T00:52:30.371Z,5.38
2024-04-25T00:55:01.307Z,4.98
2024-04-25T00:57:37.490Z,5.39
2024-04-25T01:00:09.890Z,5.12
2024-04-25T01:02:41.885Z,5.63
2024-04-25T01:05:12.652Z,5.58
2024-04-25T01:07:43.082Z,5.35
2024-04-25T01:10:13.578Z,5.52
2024-04-25T01:12:47.002Z,5.49
2024-04-25T01:15:17.541Z,5.24
2024-04-25T01:17:48.117Z,5.05
2024-04-25T01:20:18.811Z,5.40
2024-04-25T01:22:50.766Z,5.46
2024-04-25T01:25:24.782Z,4.79
2024-04-25T01:27:55.470Z,5.50
2024-04-25T01:30:28.597Z,5.60
2024-04-25T01:33:01.527Z,5.52
2024-04-25T01:35:35.107Z,5.51
2024-04-25T01:38:06.002Z,5.61
2024-04-25T01:40:39.112Z,5.63
2024-04-25T01:43:10.337Z,5.67
2024-04-25T01:45:40.793Z,5.69
2024-04-25T01:48:11.574Z,5.71
2024-04-25T01:50:42.359Z,5.50
2024-04-25T01:53:12.776Z,5.26
2024-04-25T01:55:45.876Z,5.64
2024-04-25T01:58:16.293Z,5.55
2024-04-25T02:00:46.649Z,5.56
2024-04-25T02:03:17.218Z,5.06
2024-04-25T02:05:47.664Z,5.59
2024-04-25T02:08:18.368Z,5.55
2024-04-25T02:10:51.776Z,5.18
2024-04-25T02:13:22.335Z,4.59
2024-04-25T02:15:53.060Z,5.28
2024-04-25T02:18:23.746Z,5.07
2024-04-25T02:21:09.945Z,5.72
2024-04-25T02:23:56.864Z,5.62
2024-04-25T02:26:30.338Z,5.79
2024-04-25T02:29:03.377Z,5.73
2024-04-25T02:31:34.556Z,5.75
2024-04-25T02:34:05.551Z,5.56
2024-04-25T02:36:35.942Z,5.76
2024-04-25T02:39:08.061Z,5.54
2024-04-25T02:41:38.451Z,5.56
2024-04-25T02:44:09.254Z,5.63
2024-04-25T02:46:36.982Z,5.58
2024-04-25T02:49:07.338Z,5.58
2024-04-25T02:51:35.039Z,5.46
2024-04-25T02:54:05.491Z,5.34
2024-04-25T02:56:33.191Z,5.48
2024-04-25T02:59:06.402Z,4.97
2024-04-25T03:01:34.193Z,5.45
2024-04-25T03:04:04.660Z,5.54
2024-04-25T03:06:32.709Z,5.58
2024-04-25T03:09:03.339Z,5.27
2024-04-25T03:11:31.242Z,4.83
2024-04-25T03:14:01.703Z,5.42
2024-04-25T03:16:32.240Z,5.44
2024-04-25T03:19:03.095Z,5.42
2024-04-25T03:21:31.073Z,5.38
2024-04-25T03:24:01.551Z,5.47
2024-04-25T03:26:29.631Z,5.35
2024-04-25T03:29:00.502Z,5.50
2024-04-25T03:31:31.246Z,4.38
2024-04-25T03:34:02.068Z,5.48
2024-04-25T03:36:30.110Z,4.91
2024-04-25T03:39:01.434Z,5.33
2024-04-25T03:41:34.217Z,5.53
2024-04-25T03:44:04.700Z,5.49
2024-04-25T03:46:37.617Z,5.58
2024-04-25T03:49:09.873Z,5.60
2024-04-25T03:51:40.443Z,5.32
2024-04-25T03:54:11.832Z,4.87
2024-04-25T03:56:42.620Z,5.26
2024-04-25T03:59:12.908Z,5.32
2024-04-25T04:01:45.873Z,5.34
2024-04-25T04:04:16.855Z,4.79
2024-04-25T04:06:47.512Z,5.48
2024-04-25T04:09:18.284Z,5.24
2024-04-25T04:11:49.368Z,5.57
2024-04-25T04:14:20.264Z,5.45
2024-04-25T04:16:58.751Z,5.33
2024-04-25T04:19:29.645Z,5.25
2024-04-25T04:22:00.387Z,5.19
2024-04-25T04:24:31.489Z,5.34
2024-04-25T04:27:02.291Z,4.85
2024-04-25T04:29:32.923Z,5.12
2024-04-25T04:32:06.134Z,5.22
2024-04-25T04:34:36.536Z,5.53
2024-04-25T04:37:07.165Z,5.09
2024-04-25T04:39:37.837Z,5.61
2024-04-25T04:42:08.345Z,5.54
2024-04-25T04:44:39.320Z,5.71
2024-04-25T04:47:12.767Z,5.63
2024-04-25T04:49:42.992Z,5.77
2024-04-25T04:52:13.704Z,5.52
2024-04-25T04:54:44.294Z,5.47
2024-04-25T04:57:15.351Z,5.46
2024-04-25T04:59:45.679Z,5.73
2024-04-25T05:02:19.188Z,5.80
2024-04-25T05:04:49.804Z,5.60
2024-04-25T05:07:20.531Z,5.91
2024-04-25T05:09:51.305Z,5.85
2024-04-25T05:12:21.968Z,5.65
2024-04-25T05:14:52.687Z,5.49
2024-04-25T05:17:26.358Z,5.98
2024-04-25T05:19:57.567Z,5.81
2024-04-25T05:22:28.387Z,5.81
2024-04-25T05:24:59.270Z,5.98
2024-04-25T05:27:30.494Z,6.16
2024-04-25T05:30:01.133Z,5.58
2024-04-25T05:32:34.334Z,6.18
2024-04-25T05:35:05.598Z,6.34
2024-04-25T05:37:37.273Z,5.61
2024-04-25T05:40:08.849Z,5.49
2024-04-25T05:42:39.352Z,6.46
2024-04-25T05:45:10.600Z,6.51
2024-04-25T05:47:43.927Z,6.60
2024-04-25T05:50:14.493Z,6.52
2024-04-25T05:52:45.223Z,6.61
2024-04-25T05:55:16.563Z,6.61
2024-04-25T05:57:46.947Z,6.58
2024-04-25T06:00:17.491Z,6.33
2024-04-25T06:02:50.871Z,6.91
2024-04-25T06:05:21.444Z,6.92
2024-04-25T06:07:51.779Z,6.87
2024-04-25T06:10:23.437Z,7.15
2024-04-25T06:12:54.066Z,7.19
2024-04-25T06:15:24.305Z,7.25
2024-04-25T06:17:57.931Z,7.21
2024-04-25T06:20:28.422Z,7.19
2024-04-25T06:22:58.770Z,7.29
2024-04-25T06:25:29.017Z,7.25
2024-04-25T06:27:59.329Z,7.14
2024-04-25T06:30:29.655Z,7.37
2024-04-25T06:33:02.862Z,7.13
2024-04-25T06:35:33.931Z,7.21
2024-04-25T06:38:04.332Z,7.50
2024-04-25T06:40:34.721Z,7.48
2024-04-25T06:43:05.086Z,7.67
2024-04-25T06:45:35.498Z,7.70
2024-04-25T06:48:10.671Z,7.70
2024-04-25T06:50:43.679Z,7.66
2024-04-25T06:53:14.213Z,7.79
2024-04-25T06:55:45.103Z,7.84
2024-04-25T06:58:15.566Z,7.49
2024-04-25T07:00:46.136Z,7.97
2024-04-25T07:03:19.964Z,7.97
2024-04-25T07:05:51.385Z,7.84
2024-04-25T07:08:23.152Z,8.10
2024-04-25T07:10:53.877Z,8.35
2024-04-25T07:13:24.289Z,7.87
2024-04-25T07:15:54.826Z,8.24
2024-04-25T07:18:28.027Z,8.25
2024-04-25T07:20:58.544Z,8.33
2024-04-25T07:23:29.354Z,8.46
2024-04-25T07:25:59.787Z,8.59
2024-04-25T07:28:31.577Z,8.69
2024-04-25T07:31:03.434Z,8.84
2024-04-25T07:33:36.710Z,8.60
2024-04-25T07:36:07.390Z,8.87
2024-04-25T07:38:38.004Z,8.97
2024-04-25T07:41:08.799Z,9.11
2024-04-25T07:43:39.178Z,9.34
2024-04-25T07:46:11.248Z,9.18
2024-04-25T07:48:46.051Z,9.36
2024-04-25T07:51:16.622Z,9.47
2024-04-25T07:53:47.265Z,9.63
2024-04-25T07:56:17.702Z,9.65
2024-04-25T07:58:48.147Z,9.59
2024-04-25T08:01:19.899Z,9.53
2024-04-25T08:03:53.257Z,9.36
2024-04-25T08:06:23.741Z,9.83
2024-04-25T08:08:54.302Z,9.36
2024-04-25T08:11:24.906Z,9.72
2024-04-25T08:13:57.344Z,9.99
2024-04-25T08:16:29.311Z,9.78
2024-04-25T08:19:02.476Z,9.98
2024-04-25T08:21:32.792Z,9.97
2024-04-25T08:24:03.218Z,10.00
2024-04-25T08:26:33.455Z,9.54
2024-04-25T08:29:03.752Z,9.67
2024-04-25T08:31:31.488Z,9.32
2024-04-25T08:34:04.656Z,9.33
2024-04-25T08:36:35.154Z,9.29
2024-04-25T08:39:05.621Z,9.11
2024-04-25T08:41:37.130Z,9.47
2024-04-25T08:44:07.758Z,9.50
2024-04-25T08:46:38.710Z,9.39
2024-04-25T08:49:12.259Z,9.14
2024-04-25T08:51:44.199Z,9.29
2024-04-25T08:54:16.314Z,9.57
2024-04-25T08:56:46.799Z,9.64
2024-04-25T08:59:17.190Z,8.35
2024-04-25T09:01:49.714Z,9.71
2024-04-25T09:04:24.501Z,9.74
2024-04-25T09:06:54.947Z,10.00
2024-04-25T09:09:25.452Z,9.83
2024-04-25T09:11:57.191Z,10.15
2024-04-25T09:14:27.564Z,10.22
2024-04-25T09:16:58.162Z,9.09
2024-04-25T09:19:31.235Z,10.46
2024-04-25T09:22:01.812Z,10.86
2024-04-25T09:24:32.322Z,11.07
2024-04-25T09:27:02.769Z,11.08
2024-04-25T09:29:34.786Z,11.51
2024-04-25T09:32:06.566Z,11.83
2024-04-25T09:34:39.712Z,11.45
2024-04-25T09:37:10.356Z,11.64
2024-04-25T09:39:42.942Z,11.95
2024-04-25T09:42:16.166Z,11.79
2024-04-25T09:44:47.603Z,12.04
2024-04-25T09:47:25.841Z,10.31
2024-04-25T09:50:07.680Z,11.58
2024-04-25T09:52:42.188Z,11.70
2024-04-25T09:55:18.650Z,11.64
2024-04-25T09:57:54.646Z,11.68
2024-04-25T10:00:25.522Z,11.81
2024-04-25T10:02:58.023Z,11.24
2024-04-25T10:05:31.907Z,11.74
2024-04-25T10:08:02.739Z,12.02
2024-04-25T10:10:33.755Z,12.26
2024-04-25T10:13:04.930Z,12.21
2024-04-25T10:15:38.039Z,11.82
2024-04-25T10:18:11.409Z,12.14
2024-04-25T10:20:44.791Z,12.01
2024-04-25T10:23:15.366Z,12.11
2024-04-25T10:25:55.021Z,11.33
2024-04-25T10:28:26.116Z,11.68
2024-04-25T10:30:59.801Z,11.70
2024-04-25T10:33:30.502Z,11.73
2024-04-25T10:36:10.312Z,11.70
2024-04-25T10:38:46.481Z,11.53
2024-04-25T10:41:34.369Z,10.91
2024-04-25T10:44:04.710Z,11.85
2024-04-25T10:46:37.052Z,11.95
2024-04-25T10:49:09.305Z,12.06
2024-04-25T10:51:44.088Z,11.71
2024-04-25T10:54:14.662Z,12.38
2024-04-25T10:56:45.302Z,12.52
2024-04-25T10:59:15.998Z,12.50
2024-04-25T11:01:46.516Z,12.58
2024-04-25T11:04:17.165Z,12.09
2024-04-25T11:06:50.281Z,10.73
2024-04-25T11:09:23.699Z,12.03
2024-04-25T11:11:54.241Z,12.38
2024-04-25T11:14:25.559Z,11.84
2024-04-25T11:16:56.845Z,11.25
2024-04-25T11:22:05.489Z,13.01
2024-04-25T11:24:36.313Z,12.09
2024-04-25T11:27:08.528Z,12.01
2024-04-25T11:29:39.096Z,12.16
2024-04-25T11:32:09.692Z,11.59
2024-04-25T11:34:40.008Z,11.40
2024-04-25T11:37:13.018Z,11.30
2024-04-25T11:39:55.084Z,11.27
2024-04-25T11:42:26.207Z,11.36
2024-04-25T11:44:56.744Z,11.45
2024-04-25T11:47:28.112Z,10.80
2024-04-25T11:49:58.736Z,11.05
2024-04-25T11:52:31.831Z,11.16
2024-04-25T11:55:02.503Z,11.10
2024-04-25T11:57:32.816Z,11.00
2024-04-25T12:00:03.243Z,11.17
2024-04-25T12:02:33.558Z,11.03
2024-04-25T12:05:04.113Z,10.41
2024-04-25T12:07:37.375Z,11.08
2024-04-25T12:10:08.215Z,11.30
2024-04-25T12:12:38.632Z,10.72
2024-04-25T12:15:09.955Z,11.35
2024-04-25T12:17:40.703Z,11.14
2024-04-25T12:20:12.043Z,11.45
2024-04-25T12:22:45.772Z,11.51
2024-04-25T12:25:16.363Z,12.11
2024-04-25T12:27:46.738Z,12.28
2024-04-25T12:30:17.421Z,12.00
2024-04-25T12:32:48.088Z,12.11
2024-04-25T12:35:20.651Z,12.43
2024-04-25T12:37:53.972Z,12.54
2024-04-25T12:40:24.530Z,12.24
2024-04-25T12:42:54.971Z,12.77
2024-04-25T12:45:27.393Z,13.23
2024-04-25T12:47:57.933Z,13.41
2024-04-25T12:50:28.342Z,13.46
2024-04-25T12:53:01.364Z,13.62
2024-04-25T12:55:29.161Z,13.73
2024-04-25T12:57:59.729Z,13.59
2024-04-25T13:00:30.578Z,13.57
2024-04-25T13:03:01.155Z,13.61
2024-04-25T13:05:31.568Z,13.27
2024-04-25T13:08:05.009Z,13.35
2024-04-25T13:10:35.400Z,12.98
2024-04-25T13:13:07.017Z,13.07
2024-04-25T13:15:37.674Z,12.88
2024-04-25T13:18:08.682Z,12.82
2024-04-25T13:20:39.471Z,12.62
2024-04-25T13:23:12.631Z,12.34
2024-04-25T13:25:43.055Z,12.25
2024-04-25T13:28:14.166Z,11.08
2024-04-25T13:30:44.520Z,11.11
2024-04-25T13:33:15.739Z,11.66
2024-04-25T13:35:46.324Z,11.68
2024-04-25T13:38:19.676Z,12.02
2024-04-25T13:40:50.192Z,12.34
2024-04-25T13:43:21.177Z,12.21
2024-04-25T13:45:52.362Z,12.89
2024-04-25T13:48:23.307Z,13.16
2024-04-25T13:50:53.981Z,13.09
2024-04-25T13:53:27.306Z,13.97
2024-04-25T13:55:58.142Z,13.81
2024-04-25T13:58:28.659Z,13.14
2024-04-25T14:00:59.208Z,12.74
2024-04-25T14:03:29.630Z,11.43
2024-04-25T14:06:00.916Z,11.91
2024-04-25T14:08:34.465Z,12.10
2024-04-25T14:11:05.104Z,12.13
2024-04-25T14:13:35.805Z,12.68
2024-04-25T14:16:07.149Z,12.83
2024-04-25T14:18:38.040Z,12.39
2024-04-25T14:21:11.349Z,12.83
2024-04-25T14:23:46.085Z,12.83
2024-04-25T14:26:38.350Z,12.76
2024-04-25T14:29:08.718Z,12.77
2024-04-25T14:31:39.233Z,12.59
2024-04-25T14:34:09.915Z,12.56
2024-04-25T14:36:40.422Z,11.99
2024-04-25T14:39:15.319Z,11.74
2024-04-25T14:41:47.060Z,11.39
2024-04-25T14:44:18.372Z,11.71
2024-04-25T14:46:49.555Z,11.67
2024-04-25T14:49:22.231Z,11.51
2024-04-25T14:51:53.037Z,11.00
2024-04-25T14:54:26.091Z,11.64
2024-04-25T14:56:56.566Z,12.35
2024-04-25T14:59:28.519Z,13.18
2024-04-25T15:01:59.362Z,13.08
2024-04-25T15:04:30.762Z,12.87
2024-04-25T15:07:01.285Z,12.91
2024-04-25T15:09:34.627Z,12.68
2024-04-25T15:12:07.507Z,12.44
2024-04-25T15:14:39.125Z,12.02
2024-04-25T15:17:10.808Z,11.67
2024-04-25T15:19:42.725Z,11.54
2024-04-25T15:22:14.719Z,11.50
2024-04-25T15:24:50.079Z,11.33
2024-04-25T15:27:20.638Z,11.13
2024-04-25T15:29:52.284Z,11.29
2024-04-25T15:32:23.144Z,11.28
2024-04-25T15:34:54.132Z,10.49
2024-04-25T15:37:25.044Z,10.92
2024-04-25T15:39:59.732Z,10.82
2024-04-25T15:42:30.448Z,10.67
2024-04-25T15:45:01.251Z,10.19
2024-04-25T15:47:32.363Z,10.18
2024-04-25T15:50:03.192Z,9.72
2024-04-25T15:52:36.017Z,9.99
2024-04-25T15:55:10.398Z,9.83
2024-04-25T15:57:41.021Z,9.89
2024-04-25T16:00:13.717Z,9.91
2024-04-25T16:02:44.531Z,9.87
2024-04-25T16:05:15.096Z,9.78
2024-04-25T16:07:45.924Z,9.52
2024-04-25T16:10:19.309Z,9.09
2024-04-25T16:12:50.122Z,9.66
2024-04-25T16:15:20.544Z,9.68
2024-04-25T16:17:51.277Z,9.68
2024-04-25T16:20:22.427Z,9.67
2024-04-25T16:22:52.794Z,9.62
2024-04-25T16:25:26.256Z,9.48
2024-04-25T16:27:57.061Z,9.54
2024-04-25T16:30:28.013Z,9.54
2024-04-25T16:32:59.408Z,9.50
2024-04-25T16:35:30.044Z,9.38
2024-04-25T16:38:00.851Z,8.90
2024-04-25T16:40:35.511Z,8.88
2024-04-25T16:43:06.439Z,9.33
2024-04-25T16:45:39.002Z,9.25
2024-04-25T16:48:10.947Z,9.29
2024-04-25T16:50:42.179Z,9.50
2024-04-25T16:53:12.696Z,9.29
2024-04-25T16:55:45.931Z,9.27
2024-04-25T16:58:18.072Z,8.91
2024-04-25T17:00:50.240Z,9.14
2024-04-25T17:03:22.171Z,9.20
2024-04-25T17:05:53.024Z,9.18
2024-04-25T17:08:24.586Z,8.72
2024-04-25T17:10:58.714Z,9.37
2024-04-25T17:13:29.655Z,9.28
2024-04-25T17:16:00.283Z,8.88
2024-04-25T17:18:31.628Z,9.14
2024-04-25T17:21:04.172Z,9.14
2024-04-25T17:23:35.597Z,9.15
2024-04-25T17:26:12.216Z,8.65
2024-04-25T17:28:43.763Z,8.75
2024-04-25T17:31:14.488Z,7.34
2024-04-25T17:33:45.099Z,8.81
2024-04-25T17:36:16.052Z,8.61
2024-04-25T17:38:46.858Z,8.28
2024-04-25T17:41:21.711Z,8.81
2024-04-25T17:43:54.196Z,8.77
2024-04-25T17:46:25.463Z,8.71
2024-04-25T17:48:58.125Z,8.44
2024-04-25T17:51:32.648Z,8.56
2024-04-25T17:54:04.798Z,8.48
2024-04-25T17:56:39.377Z,8.41
2024-04-25T17:59:09.910Z,8.50
2024-04-25T18:01:42.594Z,8.26
2024-04-25T18:04:13.369Z,8.48
2024-04-25T18:06:44.438Z,8.31
2024-04-25T18:09:15.510Z,8.53
2024-04-25T18:11:48.854Z,8.49
2024-04-25T18:14:20.590Z,8.10
2024-04-25T18:16:50.838Z,8.36
2024-04-25T18:19:22.070Z,8.32
2024-04-25T18:21:52.589Z,8.19
2024-04-25T18:24:25.552Z,7.54
2024-04-25T18:26:59.566Z,8.27
2024-04-25T18:29:30.078Z,8.02
2024-04-25T18:32:00.476Z,8.29
2024-04-25T18:34:31.136Z,8.14
2024-04-25T18:37:02.563Z,8.17
2024-04-25T18:39:32.942Z,8.01
2024-04-25T18:42:08.960Z,7.66
2024-04-25T18:44:41.912Z,7.80
2024-04-25T18:47:13.329Z,7.80
2024-04-25T18:49:43.628Z,7.65
2024-04-25T18:52:15.861Z,7.69
2024-04-25T18:54:48.006Z,7.57
2024-04-25T18:57:21.212Z,7.52
2024-04-25T18:59:52.138Z,7.69
2024-04-25T19:02:22.974Z,7.54
2024-04-25T19:04:53.652Z,7.50
2024-04-25T19:07:24.473Z,7.54
2024-04-25T19:09:55.866Z,7.32
2024-04-25T19:12:29.059Z,7.33
2024-04-25T19:14:59.750Z,7.28
2024-04-25T19:17:30.187Z,7.09
2024-04-25T19:20:00.982Z,7.03
2024-04-25T19:22:31.643Z,6.75
2024-04-25T19:25:02.278Z,6.95
2024-04-25T19:27:37.107Z,6.89
2024-04-25T19:30:08.911Z,6.95
2024-04-25T19:32:40.833Z,6.82
2024-04-25T19:35:11.760Z,7.09
2024-04-25T19:37:42.227Z,6.24
2024-04-25T19:40:13.467Z,7.03
2024-04-25T19:42:46.879Z,7.01
2024-04-25T19:45:17.567Z,7.01
2024-04-25T19:47:45.880Z,6.83
2024-04-25T19:50:17.016Z,6.81
2024-04-25T19:52:48.472Z,6.90
2024-04-25T19:55:19.100Z,5.79
2024-04-25T19:57:54.134Z,6.44
2024-04-25T20:00:24.624Z,6.49
2024-04-25T20:02:55.080Z,6.68
2024-04-25T20:05:25.714Z,6.58
2024-04-25T20:07:56.320Z,6.77
2024-04-25T20:10:27.971Z,6.62
2024-04-25T20:13:01.492Z,6.47
2024-04-25T20:15:32.195Z,6.55
2024-04-25T20:18:18.081Z,6.36
2024-04-25T20:21:07.011Z,6.44
2024-04-25T20:23:40.779Z,6.42
2024-04-25T20:26:13.047Z,6.53
2024-04-25T20:28:46.491Z,6.47
2024-04-25T20:31:19.521Z,6.41
2024-04-25T20:33:50.707Z,6.18
2024-04-25T20:36:21.626Z,6.01
2024-04-25T20:38:52.530Z,5.91
2024-04-25T20:41:25.035Z,6.13
2024-04-25T20:43:58.785Z,4.48
2024-04-25T20:46:26.713Z,6.05
2024-04-25T20:48:59.868Z,5.73
2024-04-25T20:51:32.091Z,4.54
2024-04-25T20:54:03.443Z,5.98
2024-04-25T20:56:34.235Z,6.03
2024-04-25T20:59:07.804Z,5.69
2024-04-25T21:01:41.142Z,5.90
2024-04-25T21:04:12.334Z,5.57
2024-04-25T21:06:45.651Z,5.72
2024-04-25T21:09:20.059Z,5.46
2024-04-25T21:11:52.190Z,5.46
2024-04-25T21:14:25.466Z,5.58
2024-04-25T21:16:56.468Z,5.59
2024-04-25T21:19:27.060Z,5.60
2024-04-25T21:21:58.378Z,5.64
2024-04-25T21:24:29.847Z,5.56
2024-04-25T21:27:00.517Z,4.95
2024-04-25T21:29:33.993Z,5.61
2024-04-25T21:32:04.645Z,5.24
2024-04-25T21:34:35.385Z,5.56
2024-04-25T21:37:05.851Z,5.59
2024-04-25T21:39:36.391Z,5.53
2024-04-25T21:42:06.971Z,4.90
2024-04-25T21:44:40.516Z,5.23
2024-04-25T21:47:11.092Z,4.92
2024-04-25T21:49:41.672Z,5.34
2024-04-25T21:52:12.160Z,5.21
2024-04-25T21:54:42.869Z,5.13
2024-04-25T21:57:18.829Z,5.31
2024-04-25T21:59:52.612Z,5.29
2024-04-25T22:02:23.913Z,4.95
2024-04-25T22:04:54.749Z,5.26
2024-04-25T22:07:25.409Z,5.20
2024-04-25T22:09:56.202Z,4.66
2024-04-25T22:12:27.531Z,4.99
2024-04-25T22:15:01.017Z,4.94
2024-04-25T22:17:31.894Z,4.76
2024-04-25T22:20:02.554Z,4.83
2024-04-25T22:22:32.992Z,5.08
2024-04-25T22:25:03.436Z,5.06
2024-04-25T22:27:33.975Z,4.91
2024-04-25T22:30:07.622Z,4.71
2024-04-25T22:32:38.429Z,4.95
2024-04-25T22:35:09.677Z,4.88
2024-04-25T22:37:40.235Z,4.91
2024-04-25T22:40:11.754Z,4.69
2024-04-25T22:42:42.376Z,4.95
2024-04-25T22:45:21.677Z,4.14
2024-04-25T22:47:55.548Z,4.83
2024-04-25T22:50:26.549Z,4.65
2024-04-25T22:52:57.212Z,4.81
2024-04-25T22:55:27.645Z,4.77
2024-04-25T22:57:58.618Z,4.63
2024-04-25T23:00:34.678Z,4.16
2024-04-25T23:03:05.221Z,4.55
2024-04-25T23:05:37.561Z,4.70
2024-04-25T23:08:08.620Z,4.32
2024-04-25T23:10:42.093Z,4.56
2024-04-25T23:13:12.564Z,4.54
2024-04-25T23:15:45.749Z,4.55
2024-04-25T23:18:16.547Z,4.59
2024-04-25T23:20:47.292Z,4.57
2024-04-25T23:23:17.786Z,4.21
2024-04-25T23:25:48.260Z,4.50
2024-04-25T23:28:18.816Z,4.15
2024-04-25T23:30:52.321Z,3.66
2024-04-25T23:33:22.841Z,3.88
2024-04-25T23:35:53.895Z,4.35
2024-04-25T23:38:24.524Z,4.44
2024-04-25T23:40:54.934Z,3.40
2024-04-25T23:43:25.465Z,2.89
2024-04-25T23:45:58.675Z,3.94
2024-04-25T23:48:29.138Z,4.01
2024-04-25T23:51:04.305Z,3.79
2024-04-25T23:53:35.121Z,4.01
2024-04-25T23:56:05.903Z,3.92
2024-04-25T23:58:36.395Z,3.96
